createdAt,value
2018-03-15T00:00:03.245Z,9.04
2018-03-15T00:01:06.636Z,9.04
2018-03-15T00:02:09.970Z,9.03
2018-03-15T00:03:18.969Z,9.03
2018-03-15T00:04:22.292Z,9.01
2018-03-15T00:05:26.514Z,9.01
2018-03-15T00:06:30.284Z,9.01
2018-03-15T00:07:33.664Z,9.00
2018-03-15T00:08:37.015Z,9.00
2018-03-15T00:09:40.369Z,8.99
2018-03-15T00:10:43.709Z,8.99
2018-03-15T00:11:47.077Z,8.99
2018-03-15T00:12:50.466Z,8.98
2018-03-15T00:13:53.848Z,8.98
2018-03-15T00:14:57.304Z,8.97
2018-03-15T00:16:00.662Z,8.97
2018-03-15T00:17:03.970Z,8.96
2018-03-15T00:18:07.281Z,8.95
2018-03-15T00:19:10.688Z,8.95
2018-03-15T00:20:14.039Z,8.94
2018-03-15T00:21:17.384Z,8.94
2018-03-15T00:22:20.733Z,8.94
2018-03-15T00:23:24.174Z,8.94
2018-03-15T00:24:27.494Z,8.93
2018-03-15T00:25:30.929Z,8.93
2018-03-15T00:26:34.877Z,8.93
2018-03-15T00:27:38.340Z,8.93
2018-03-15T00:28:41.749Z,8.92
2018-03-15T00:29:45.135Z,8.90
2018-03-15T00:30:48.540Z,8.90
2018-03-15T00:31:51.832Z,8.90
2018-03-15T00:32:55.284Z,8.89
2018-03-15T00:33:58.701Z,8.89
2018-03-15T00:35:02.020Z,8.89
2018-03-15T00:36:05.427Z,8.89
2018-03-15T00:37:08.792Z,8.87
2018-03-15T00:38:12.111Z,8.87
2018-03-15T00:39:15.483Z,8.85
2018-03-15T00:40:18.878Z,8.85
2018-03-15T00:41:22.404Z,8.84
2018-03-15T00:42:26.321Z,8.83
2018-03-15T00:43:29.648Z,8.82
2018-03-15T00:44:32.976Z,8.82
2018-03-15T00:45:37.091Z,8.82
2018-03-15T00:46:40.430Z,8.81
2018-03-15T00:47:43.761Z,8.81
2018-03-15T00:48:47.060Z,8.79
2018-03-15T00:49:50.408Z,8.78
2018-03-15T00:50:53.830Z,8.78
2018-03-15T00:51:57.187Z,8.78
2018-03-15T00:53:00.505Z,8.77
2018-03-15T00:54:03.820Z,8.76
2018-03-15T00:55:07.250Z,8.76
2018-03-15T00:56:10.859Z,8.76
2018-03-15T00:57:14.190Z,8.75
2018-03-15T00:58:17.504Z,8.75
2018-03-15T00:59:20.918Z,8.75
2018-03-15T01:00:24.257Z,8.74
2018-03-15T01:01:27.646Z,8.74
2018-03-15T01:02:30.972Z,8.74
2018-03-15T01:03:34.330Z,8.73
2018-03-15T01:04:37.645Z,8.72
2018-03-15T01:05:40.996Z,8.72
2018-03-15T01:06:44.310Z,8.72
2018-03-15T01:07:48.480Z,8.71
2018-03-15T01:08:51.798Z,8.71
2018-03-15T01:09:55.112Z,8.70
2018-03-15T01:10:58.468Z,8.69
2018-03-15T01:12:01.904Z,8.69
2018-03-15T01:13:05.322Z,8.68
2018-03-15T01:14:08.637Z,8.68
2018-03-15T01:15:11.992Z,8.67
2018-03-15T01:16:16.122Z,8.67
2018-03-15T01:17:19.485Z,8.67
2018-03-15T01:18:22.862Z,8.67
2018-03-15T01:19:26.219Z,8.66
2018-03-15T01:20:29.592Z,8.66
2018-03-15T01:21:32.969Z,8.65
2018-03-15T01:22:36.282Z,8.64
2018-03-15T01:23:39.645Z,8.62
2018-03-15T01:24:42.974Z,8.62
2018-03-15T01:25:46.316Z,8.62
2018-03-15T01:26:49.629Z,8.62
2018-03-15T01:28:55.337Z,8.61
2018-03-15T01:29:58.742Z,8.60
2018-03-15T01:31:02.108Z,8.60
2018-03-15T01:32:05.486Z,8.59
2018-03-15T01:33:08.819Z,8.59
2018-03-15T01:34:12.179Z,8.59
2018-03-15T01:35:15.484Z,8.58
2018-03-15T01:36:18.862Z,8.57
2018-03-15T01:37:22.325Z,8.57
2018-03-15T01:38:25.785Z,8.56
2018-03-15T01:39:29.103Z,8.56
2018-03-15T01:40:32.496Z,8.55
2018-03-15T01:41:35.888Z,8.55
2018-03-15T01:42:39.237Z,8.55
2018-03-15T01:43:42.613Z,8.54
2018-03-15T01:44:45.982Z,8.53
2018-03-15T01:45:50.137Z,8.52
2018-03-15T01:46:53.436Z,8.52
2018-03-15T01:47:56.851Z,8.51
2018-03-15T01:49:00.134Z,8.50
2018-03-15T01:50:03.469Z,8.49
2018-03-15T01:51:07.650Z,8.48
2018-03-15T01:52:10.944Z,8.47
2018-03-15T01:53:14.361Z,8.47
2018-03-15T01:54:17.684Z,8.46
2018-03-15T01:55:21.137Z,8.46
2018-03-15T01:56:24.512Z,8.45
2018-03-15T01:57:27.796Z,8.45
2018-03-15T01:58:31.109Z,8.45
2018-03-15T01:59:34.424Z,8.44
2018-03-15T02:00:37.956Z,8.44
2018-03-15T02:01:41.339Z,8.44
2018-03-15T02:02:44.712Z,8.44
2018-03-15T02:03:48.075Z,8.42
2018-03-15T02:04:51.380Z,8.41
2018-03-15T02:05:54.809Z,8.41
2018-03-15T02:06:58.175Z,8.41
2018-03-15T02:08:01.540Z,8.39
2018-03-15T02:09:04.969Z,8.39
2018-03-15T02:10:08.253Z,8.38
2018-03-15T02:11:11.596Z,8.37
2018-03-15T02:12:14.943Z,8.36
2018-03-15T02:13:18.309Z,8.36
2018-03-15T02:14:21.622Z,8.35
2018-03-15T02:15:25.038Z,8.34
2018-03-15T02:16:28.395Z,8.33
2018-03-15T02:17:31.756Z,8.32
2018-03-15T02:18:35.101Z,8.32
2018-03-15T02:19:38.588Z,8.31
2018-03-15T02:20:41.904Z,8.31
2018-03-15T02:21:45.227Z,8.31
2018-03-15T02:22:48.578Z,8.30
2018-03-15T02:23:51.925Z,8.28
2018-03-15T02:24:55.256Z,8.26
2018-03-15T02:25:58.731Z,8.27
2018-03-15T02:27:02.081Z,8.27
2018-03-15T02:28:05.471Z,8.27
2018-03-15T02:29:08.771Z,8.27
2018-03-15T02:30:12.105Z,8.26
2018-03-15T02:31:15.420Z,8.26
2018-03-15T02:32:18.761Z,8.26
2018-03-15T02:33:22.147Z,8.24
2018-03-15T02:34:25.538Z,8.24
2018-03-15T02:35:28.884Z,8.24
2018-03-15T02:36:32.249Z,8.23
2018-03-15T02:37:35.578Z,8.23
2018-03-15T02:38:38.912Z,8.22
2018-03-15T02:39:42.354Z,8.22
2018-03-15T02:40:45.659Z,8.22
2018-03-15T02:41:48.985Z,8.22
2018-03-15T02:42:52.337Z,8.22
2018-03-15T02:43:55.685Z,8.20
2018-03-15T02:44:58.996Z,8.20
2018-03-15T02:46:03.217Z,8.19
2018-03-15T02:47:06.537Z,8.18
2018-03-15T02:48:09.948Z,8.18
2018-03-15T02:49:13.327Z,8.17
2018-03-15T02:50:16.750Z,8.16
2018-03-15T02:51:20.137Z,8.16
2018-03-15T02:52:23.487Z,8.13
2018-03-15T02:53:26.858Z,8.14
2018-03-15T02:54:30.184Z,8.13
2018-03-15T02:55:33.583Z,8.13
2018-03-15T02:56:36.904Z,8.12
2018-03-15T02:57:40.252Z,8.11
2018-03-15T02:58:43.589Z,8.11
2018-03-15T02:59:47.006Z,8.10
2018-03-15T03:00:50.353Z,8.10
2018-03-15T03:01:53.766Z,8.09
2018-03-15T03:02:57.085Z,8.09
2018-03-15T03:04:00.430Z,8.09
2018-03-15T03:05:03.865Z,8.09
2018-03-15T03:06:07.165Z,8.07
2018-03-15T03:07:10.528Z,8.07
2018-03-15T03:08:13.894Z,8.07
2018-03-15T03:09:17.279Z,8.08
2018-03-15T03:10:20.596Z,8.07
2018-03-15T03:11:23.908Z,8.06
2018-03-15T03:12:27.239Z,8.06
2018-03-15T03:13:30.525Z,8.05
2018-03-15T03:14:33.896Z,8.05
2018-03-15T03:15:37.221Z,8.05
2018-03-15T03:16:40.545Z,8.05
2018-03-15T03:17:43.909Z,8.04
2018-03-15T03:18:47.324Z,8.03
2018-03-15T03:19:50.692Z,8.02
2018-03-15T03:20:54.061Z,8.02
2018-03-15T03:21:57.414Z,8.01
2018-03-15T03:23:00.731Z,8.01
2018-03-15T03:24:04.046Z,8.02
2018-03-15T03:25:07.380Z,8.01
2018-03-15T03:26:10.717Z,8.01
2018-03-15T03:27:14.088Z,7.99
2018-03-15T03:28:17.437Z,7.99
2018-03-15T03:29:20.750Z,8.00
2018-03-15T03:30:24.091Z,7.98
2018-03-15T03:31:27.445Z,7.98
2018-03-15T03:32:30.830Z,7.98
2018-03-15T03:33:34.219Z,7.98
2018-03-15T03:34:37.569Z,7.98
2018-03-15T03:35:40.947Z,7.97
2018-03-15T03:36:44.369Z,7.97
2018-03-15T03:37:47.699Z,7.96
2018-03-15T03:38:51.018Z,7.97
2018-03-15T03:39:55.208Z,7.96
2018-03-15T03:40:58.674Z,7.96
2018-03-15T03:42:02.014Z,7.95
2018-03-15T03:43:05.381Z,7.95
2018-03-15T03:44:08.730Z,7.95
2018-03-15T03:45:12.136Z,7.94
2018-03-15T03:46:16.444Z,7.94
2018-03-15T03:47:19.866Z,7.94
2018-03-15T03:48:23.198Z,7.93
2018-03-15T03:49:26.517Z,7.93
2018-03-15T03:50:29.831Z,7.93
2018-03-15T03:51:33.235Z,7.93
2018-03-15T03:52:36.653Z,7.93
2018-03-15T03:53:39.965Z,7.92
2018-03-15T03:54:43.370Z,7.93
2018-03-15T03:55:46.746Z,7.92
2018-03-15T03:56:50.064Z,7.92
2018-03-15T03:57:53.372Z,7.91
2018-03-15T03:58:56.837Z,7.90
2018-03-15T04:00:00.169Z,7.89
2018-03-15T04:01:03.574Z,7.89
2018-03-15T04:02:07.000Z,7.89
2018-03-15T04:03:10.317Z,7.88
2018-03-15T04:04:13.736Z,7.89
2018-03-15T04:05:17.176Z,7.89
2018-03-15T04:06:20.619Z,7.87
2018-03-15T04:07:23.976Z,7.86
2018-03-15T04:08:27.350Z,7.86
2018-03-15T04:09:30.677Z,7.86
2018-03-15T04:10:33.991Z,7.86
2018-03-15T04:11:37.338Z,7.84
2018-03-15T04:12:40.672Z,7.84
2018-03-15T04:13:44.040Z,7.84
2018-03-15T04:14:47.491Z,7.83
2018-03-15T04:15:50.941Z,7.83
2018-03-15T04:16:54.275Z,7.83
2018-03-15T04:17:57.604Z,7.83
2018-03-15T04:19:00.975Z,7.82
2018-03-15T04:20:04.357Z,7.82
2018-03-15T04:21:07.680Z,7.81
2018-03-15T04:22:11.100Z,7.82
2018-03-15T04:23:14.503Z,7.82
2018-03-15T04:24:17.863Z,7.81
2018-03-15T04:25:21.201Z,7.81
2018-03-15T04:26:24.495Z,7.80
2018-03-15T04:27:27.841Z,7.79
2018-03-15T04:28:31.227Z,7.79
2018-03-15T04:29:34.587Z,7.78
2018-03-15T04:30:38.132Z,7.78
2018-03-15T04:31:41.542Z,7.78
2018-03-15T04:32:44.905Z,7.77
2018-03-15T04:33:48.290Z,7.77
2018-03-15T04:34:51.629Z,7.77
2018-03-15T04:35:55.014Z,7.77
2018-03-15T04:36:58.349Z,7.77
2018-03-15T04:38:01.732Z,7.76
2018-03-15T04:39:05.123Z,7.75
2018-03-15T04:40:08.561Z,7.76
2018-03-15T04:41:12.210Z,7.77
2018-03-15T04:42:16.392Z,7.77
2018-03-15T04:43:20.570Z,7.77
2018-03-15T04:44:26.447Z,7.76
2018-03-15T04:45:29.787Z,7.75
2018-03-15T04:46:35.085Z,7.76
2018-03-15T04:47:38.422Z,7.74
2018-03-15T04:48:41.772Z,7.74
2018-03-15T04:49:45.204Z,7.75
2018-03-15T04:50:48.517Z,7.74
2018-03-15T04:51:51.923Z,7.74
2018-03-15T04:52:55.279Z,7.73
2018-03-15T04:53:58.577Z,7.73
2018-03-15T04:55:01.900Z,7.73
2018-03-15T04:56:05.272Z,7.72
2018-03-15T04:57:08.590Z,7.73
2018-03-15T04:58:12.097Z,7.73
2018-03-15T04:59:15.532Z,7.73
2018-03-15T05:00:18.844Z,7.72
2018-03-15T05:01:22.190Z,7.72
2018-03-15T05:02:25.563Z,7.73
2018-03-15T05:03:28.892Z,7.72
2018-03-15T05:04:32.249Z,7.72
2018-03-15T05:05:35.703Z,7.71
2018-03-15T05:06:39.136Z,7.71
2018-03-15T05:07:42.453Z,7.72
2018-03-15T05:08:45.852Z,7.72
2018-03-15T05:09:49.217Z,7.72
2018-03-15T05:10:52.553Z,7.72
2018-03-15T05:11:55.876Z,7.71
2018-03-15T05:12:59.320Z,7.70
2018-03-15T05:14:02.732Z,7.70
2018-03-15T05:15:06.117Z,7.70
2018-03-15T05:16:09.577Z,7.70
2018-03-15T05:17:12.908Z,7.69
2018-03-15T05:18:16.281Z,7.69
2018-03-15T05:19:20.548Z,7.69
2018-03-15T05:20:25.287Z,7.69
2018-03-15T05:21:28.601Z,7.70
2018-03-15T05:22:32.740Z,7.69
2018-03-15T05:23:36.224Z,7.69
2018-03-15T05:24:39.540Z,7.69
2018-03-15T05:25:42.861Z,7.69
2018-03-15T05:26:46.254Z,7.69
2018-03-15T05:27:49.605Z,7.69
2018-03-15T05:28:53.057Z,7.68
2018-03-15T05:29:56.389Z,7.68
2018-03-15T05:30:59.699Z,7.69
2018-03-15T05:32:03.121Z,7.70
2018-03-15T05:33:06.473Z,7.69
2018-03-15T05:34:09.893Z,7.69
2018-03-15T05:35:13.207Z,7.70
2018-03-15T05:36:16.571Z,7.70
2018-03-15T05:37:19.974Z,7.70
2018-03-15T05:38:23.288Z,7.70
2018-03-15T05:39:26.604Z,7.70
2018-03-15T05:40:29.928Z,7.70
2018-03-15T05:41:33.272Z,7.70
2018-03-15T05:42:36.612Z,7.70
2018-03-15T05:43:39.924Z,7.70
2018-03-15T05:44:43.239Z,7.70
2018-03-15T05:45:46.815Z,7.70
2018-03-15T05:46:51.589Z,7.71
2018-03-15T05:47:54.954Z,7.70
2018-03-15T05:48:58.305Z,7.71
2018-03-15T05:50:01.756Z,7.72
2018-03-15T05:51:05.152Z,7.72
2018-03-15T05:52:08.449Z,7.73
2018-03-15T05:53:11.924Z,7.73
2018-03-15T05:54:15.344Z,7.73
2018-03-15T05:55:18.652Z,7.73
2018-03-15T05:56:22.034Z,7.74
2018-03-15T05:57:25.452Z,7.74
2018-03-15T05:58:28.790Z,7.75
2018-03-15T05:59:32.138Z,7.75
2018-03-15T06:00:35.467Z,7.76
2018-03-15T06:01:38.936Z,7.76
2018-03-15T06:02:42.263Z,7.77
2018-03-15T06:03:45.640Z,7.78
2018-03-15T06:04:49.029Z,7.79
2018-03-15T06:05:52.456Z,7.81
2018-03-15T06:06:55.776Z,7.83
2018-03-15T06:07:59.190Z,7.86
2018-03-15T06:09:02.561Z,7.91
2018-03-15T06:10:05.898Z,7.95
2018-03-15T06:11:09.213Z,8.00
2018-03-15T06:12:12.540Z,8.06
2018-03-15T06:13:15.895Z,8.13
2018-03-15T06:14:19.237Z,8.22
2018-03-15T06:15:22.640Z,8.30
2018-03-15T06:16:26.110Z,8.36
2018-03-15T06:17:29.449Z,8.40
2018-03-15T06:18:32.971Z,8.46
2018-03-15T06:19:36.599Z,8.51
2018-03-15T06:20:40.024Z,8.56
2018-03-15T06:21:43.364Z,8.64
2018-03-15T06:22:46.935Z,8.71
2018-03-15T06:23:50.433Z,8.79
2018-03-15T06:24:53.864Z,8.86
2018-03-15T06:25:57.328Z,8.95
2018-03-15T06:27:00.666Z,9.00
2018-03-15T06:28:04.047Z,9.05
2018-03-15T06:29:07.437Z,9.09
2018-03-15T06:30:11.945Z,9.12
2018-03-15T06:31:15.338Z,9.14
2018-03-15T06:32:18.832Z,9.16
2018-03-15T06:33:22.160Z,9.16
2018-03-15T06:34:25.523Z,9.17
2018-03-15T06:35:28.907Z,9.19
2018-03-15T06:36:32.418Z,9.22
2018-03-15T06:37:35.771Z,9.27
2018-03-15T06:38:39.310Z,9.35
2018-03-15T06:39:42.916Z,9.40
2018-03-15T06:40:46.352Z,9.47
2018-03-15T06:41:50.089Z,9.54
2018-03-15T06:42:53.546Z,9.63
2018-03-15T06:43:56.889Z,9.73
2018-03-15T06:45:00.432Z,9.80
2018-03-15T06:46:04.260Z,9.87
2018-03-15T06:47:09.471Z,9.89
2018-03-15T06:48:12.849Z,9.88
2018-03-15T06:49:16.255Z,9.86
2018-03-15T06:50:19.813Z,9.85
2018-03-15T06:51:23.257Z,9.84
2018-03-15T06:52:26.703Z,9.87
2018-03-15T06:53:30.220Z,9.92
2018-03-15T06:54:33.568Z,10.00
2018-03-15T06:55:37.130Z,10.08
2018-03-15T06:56:40.529Z,10.18
2018-03-15T06:57:43.856Z,10.31
2018-03-15T06:58:47.284Z,10.41
2018-03-15T06:59:50.600Z,10.51
2018-03-15T07:00:54.076Z,10.63
2018-03-15T07:01:57.440Z,10.73
2018-03-15T07:03:00.839Z,10.82
2018-03-15T07:04:04.289Z,10.91
2018-03-15T07:05:07.725Z,11.02
2018-03-15T07:06:12.080Z,11.11
2018-03-15T07:07:15.476Z,11.20
2018-03-15T07:08:19.079Z,11.29
2018-03-15T07:09:22.595Z,11.38
2018-03-15T07:10:26.046Z,11.44
2018-03-15T07:11:29.305Z,11.51
2018-03-15T07:12:32.793Z,11.55
2018-03-15T07:13:36.341Z,11.54
2018-03-15T07:14:40.127Z,11.47
2018-03-15T07:15:43.588Z,11.40
2018-03-15T07:16:46.943Z,11.32
2018-03-15T07:17:50.308Z,11.22
2018-03-15T07:18:53.671Z,11.15
2018-03-15T07:19:57.119Z,11.04
2018-03-15T07:21:00.647Z,10.93
2018-03-15T07:22:04.249Z,10.85
2018-03-15T07:23:07.713Z,10.76
2018-03-15T07:24:11.069Z,10.69
2018-03-15T07:25:14.449Z,10.64
2018-03-15T07:26:18.048Z,10.58
2018-03-15T07:27:21.498Z,10.53
2018-03-15T07:28:24.825Z,10.49
2018-03-15T07:29:28.318Z,10.44
2018-03-15T07:30:31.861Z,10.39
2018-03-15T07:31:35.226Z,10.34
2018-03-15T07:32:38.668Z,10.31
2018-03-15T07:33:42.107Z,10.30
2018-03-15T07:34:45.437Z,10.28
2018-03-15T07:35:48.861Z,10.27
2018-03-15T07:36:52.296Z,10.27
2018-03-15T07:37:55.737Z,10.28
2018-03-15T07:38:59.085Z,10.28
2018-03-15T07:40:02.511Z,10.29
2018-03-15T07:41:05.872Z,10.29
2018-03-15T07:42:09.273Z,10.29
2018-03-15T07:43:12.625Z,10.28
2018-03-15T07:44:16.060Z,10.27
2018-03-15T07:45:19.374Z,10.26
2018-03-15T07:46:22.884Z,10.25
2018-03-15T07:47:27.271Z,10.24
2018-03-15T07:48:30.717Z,10.24
2018-03-15T07:49:34.144Z,10.23
2018-03-15T07:50:37.612Z,10.22
2018-03-15T07:51:41.300Z,10.21
2018-03-15T07:52:44.817Z,10.21
2018-03-15T07:53:48.160Z,10.18
2018-03-15T07:54:51.692Z,10.18
2018-03-15T07:55:55.065Z,10.17
2018-03-15T07:56:58.476Z,10.16
2018-03-15T07:58:01.792Z,10.15
2018-03-15T07:59:05.183Z,10.15
2018-03-15T08:00:08.576Z,10.14
2018-03-15T08:01:11.920Z,10.14
2018-03-15T08:02:15.292Z,10.13
2018-03-15T08:03:18.737Z,10.12
2018-03-15T08:04:22.070Z,10.12
2018-03-15T08:05:25.655Z,10.11
2018-03-15T08:06:29.076Z,10.11
2018-03-15T08:07:32.449Z,10.13
2018-03-15T08:08:35.919Z,10.14
2018-03-15T08:09:39.288Z,10.15
2018-03-15T08:10:42.693Z,10.16
2018-03-15T08:11:46.081Z,10.16
2018-03-15T08:12:51.289Z,10.17
2018-03-15T08:13:54.825Z,10.18
2018-03-15T08:14:59.111Z,10.19
2018-03-15T08:16:06.839Z,10.20
2018-03-15T08:17:10.142Z,10.22
2018-03-15T08:18:13.510Z,10.24
2018-03-15T08:19:16.898Z,10.26
2018-03-15T08:20:20.366Z,10.28
2018-03-15T08:21:23.809Z,10.31
2018-03-15T08:22:27.559Z,10.33
2018-03-15T08:23:30.989Z,10.34
2018-03-15T08:24:34.782Z,10.36
2018-03-15T08:25:38.835Z,10.38
2018-03-15T08:26:43.840Z,10.39
2018-03-15T08:27:47.410Z,10.42
2018-03-15T08:28:50.749Z,10.45
2018-03-15T08:29:54.247Z,10.48
2018-03-15T08:30:57.572Z,10.51
2018-03-15T08:32:01.778Z,10.53
2018-03-15T08:33:05.132Z,10.55
2018-03-15T08:34:08.491Z,10.59
2018-03-15T08:35:11.846Z,10.61
2018-03-15T08:36:15.287Z,10.65
2018-03-15T08:37:18.655Z,10.67
2018-03-15T08:38:22.125Z,10.70
2018-03-15T08:39:25.656Z,10.73
2018-03-15T08:40:29.097Z,10.74
2018-03-15T08:41:32.590Z,10.78
2018-03-15T08:42:36.118Z,10.80
2018-03-15T08:43:39.533Z,10.83
2018-03-15T08:44:42.869Z,10.85
2018-03-15T08:45:46.200Z,10.88
2018-03-15T08:46:49.617Z,10.90
2018-03-15T08:47:54.929Z,10.92
2018-03-15T08:48:58.372Z,10.95
2018-03-15T08:50:02.127Z,10.98
2018-03-15T08:51:05.537Z,10.99
2018-03-15T08:52:09.033Z,11.01
2018-03-15T08:53:13.549Z,11.03
2018-03-15T08:54:16.933Z,11.04
2018-03-15T08:55:20.384Z,11.04
2018-03-15T08:56:23.778Z,11.05
2018-03-15T08:57:27.186Z,11.07
2018-03-15T08:58:30.524Z,11.09
2018-03-15T08:59:33.862Z,11.09
2018-03-15T09:00:37.238Z,11.10
2018-03-15T09:01:40.626Z,11.10
2018-03-15T09:02:43.942Z,11.13
2018-03-15T09:03:47.373Z,11.14
2018-03-15T09:04:50.778Z,11.16
2018-03-15T09:05:54.149Z,11.17
2018-03-15T09:06:57.492Z,11.17
2018-03-15T09:08:00.880Z,11.18
2018-03-15T09:09:04.313Z,11.20
2018-03-15T09:10:07.873Z,11.20
2018-03-15T09:11:11.242Z,11.22
2018-03-15T09:12:14.596Z,11.25
2018-03-15T09:13:17.907Z,11.27
2018-03-15T09:14:21.421Z,11.28
2018-03-15T09:15:24.757Z,11.29
2018-03-15T09:16:28.097Z,11.31
2018-03-15T09:17:31.437Z,11.31
2018-03-15T09:18:34.851Z,11.33
2018-03-15T09:19:38.357Z,11.33
2018-03-15T09:20:41.773Z,11.34
2018-03-15T09:21:45.132Z,11.35
2018-03-15T09:22:48.621Z,11.37
2018-03-15T09:23:51.985Z,11.37
2018-03-15T09:24:55.329Z,11.39
2018-03-15T09:25:58.709Z,11.40
2018-03-15T09:27:02.376Z,11.41
2018-03-15T09:28:05.848Z,11.43
2018-03-15T09:29:09.175Z,11.43
2018-03-15T09:30:12.584Z,11.45
2018-03-15T09:31:16.781Z,11.47
2018-03-15T09:32:20.104Z,11.47
2018-03-15T09:33:23.490Z,11.50
2018-03-15T09:34:26.986Z,11.52
2018-03-15T09:35:30.257Z,11.54
2018-03-15T09:36:33.687Z,11.56
2018-03-15T09:37:37.182Z,11.58
2018-03-15T09:38:40.646Z,11.59
2018-03-15T09:39:43.997Z,11.60
2018-03-15T09:40:48.132Z,11.63
2018-03-15T09:41:51.520Z,11.64
2018-03-15T09:42:55.808Z,11.66
2018-03-15T09:44:00.827Z,11.68
2018-03-15T09:45:05.442Z,11.71
2018-03-15T09:46:08.843Z,11.73
2018-03-15T09:47:12.241Z,11.76
2018-03-15T09:48:16.552Z,11.78
2018-03-15T09:49:19.998Z,11.82
2018-03-15T09:50:23.406Z,11.85
2018-03-15T09:51:26.972Z,11.88
2018-03-15T09:52:30.473Z,11.92
2018-03-15T09:53:34.063Z,11.96
2018-03-15T09:54:37.613Z,11.99
2018-03-15T09:55:41.006Z,12.03
2018-03-15T09:56:44.403Z,12.05
2018-03-15T09:57:47.859Z,12.08
2018-03-15T09:58:51.316Z,12.11
2018-03-15T09:59:54.675Z,12.14
2018-03-15T10:00:57.982Z,12.15
2018-03-15T10:02:01.356Z,12.18
2018-03-15T10:03:04.795Z,12.19
2018-03-15T10:04:08.187Z,12.21
2018-03-15T10:05:11.505Z,12.22
2018-03-15T10:06:14.853Z,12.25
2018-03-15T10:07:18.236Z,12.25
2018-03-15T10:08:21.578Z,12.26
2018-03-15T10:09:24.909Z,12.28
2018-03-15T10:10:28.299Z,12.30
2018-03-15T10:11:31.720Z,12.32
2018-03-15T10:12:35.172Z,12.33
2018-03-15T10:13:38.494Z,12.34
2018-03-15T10:14:41.870Z,12.36
2018-03-15T10:15:45.190Z,12.37
2018-03-15T10:16:48.572Z,12.38
2018-03-15T10:17:51.922Z,12.40
2018-03-15T10:18:55.236Z,12.43
2018-03-15T10:19:58.702Z,12.44
2018-03-15T10:21:02.045Z,12.46
2018-03-15T10:22:05.537Z,12.47
2018-03-15T10:23:09.064Z,12.48
2018-03-15T10:24:12.370Z,12.49
2018-03-15T10:25:26.390Z,12.49
2018-03-15T10:26:19.862Z,12.51
2018-03-15T10:27:23.417Z,12.52
2018-03-15T10:28:26.793Z,12.53
2018-03-15T10:29:30.160Z,12.55
2018-03-15T10:30:34.218Z,12.58
2018-03-15T10:31:37.769Z,12.60
2018-03-15T10:32:41.076Z,12.62
2018-03-15T10:33:44.437Z,12.66
2018-03-15T10:36:22.063Z,12.73
2018-03-15T10:37:25.414Z,12.79
2018-03-15T10:38:29.464Z,12.84
2018-03-15T10:39:32.848Z,12.89
2018-03-15T10:40:36.308Z,12.94
2018-03-15T10:41:40.007Z,12.98
2018-03-15T10:42:43.313Z,13.01
2018-03-15T10:43:46.680Z,13.03
2018-03-15T10:44:50.111Z,13.06
2018-03-15T10:45:53.469Z,13.09
2018-03-15T10:46:56.819Z,13.13
2018-03-15T10:48:00.152Z,13.16
2018-03-15T10:49:05.334Z,13.20
2018-03-15T10:50:08.759Z,13.24
2018-03-15T10:51:12.211Z,13.27
2018-03-15T10:52:15.681Z,13.32
2018-03-15T10:53:19.301Z,13.36
2018-03-15T10:54:22.708Z,13.40
2018-03-15T10:55:26.868Z,13.45
2018-03-15T10:56:30.617Z,13.49
2018-03-15T10:57:34.319Z,13.53
2018-03-15T10:58:37.708Z,13.58
2018-03-15T10:59:41.024Z,13.63
2018-03-15T11:00:49.930Z,13.69
2018-03-15T11:03:36.767Z,13.82
2018-03-15T11:04:45.585Z,13.88
2018-03-15T11:05:48.973Z,13.91
2018-03-15T11:06:57.990Z,13.95
2018-03-15T11:08:07.121Z,13.98
2018-03-15T11:09:14.798Z,13.99
2018-03-15T11:10:18.204Z,13.99
2018-03-15T11:11:21.572Z,14.01
2018-03-15T11:12:25.139Z,14.02
2018-03-15T11:13:28.585Z,14.04
2018-03-15T11:14:32.039Z,14.05
2018-03-15T11:15:35.406Z,14.07
2018-03-15T11:16:38.872Z,14.09
2018-03-15T11:17:42.198Z,14.10
2018-03-15T11:18:45.596Z,14.10
2018-03-15T11:19:48.927Z,14.10
2018-03-15T11:20:52.330Z,14.10
2018-03-15T11:21:55.756Z,14.12
2018-03-15T11:22:59.205Z,14.14
2018-03-15T11:24:02.632Z,14.16
2018-03-15T11:25:05.911Z,14.18
2018-03-15T11:26:09.440Z,14.20
2018-03-15T11:27:12.872Z,14.23
2018-03-15T11:28:16.985Z,14.25
2018-03-15T11:29:20.409Z,14.27
2018-03-15T11:30:23.756Z,14.29
2018-03-15T11:31:27.139Z,14.30
2018-03-15T11:32:30.560Z,14.32
2018-03-15T11:33:34.033Z,14.33
2018-03-15T11:34:37.413Z,14.35
2018-03-15T11:35:40.786Z,14.37
2018-03-15T11:36:44.421Z,14.38
2018-03-15T11:37:47.848Z,14.40
2018-03-15T11:38:51.218Z,14.42
2018-03-15T11:39:54.544Z,14.42
2018-03-15T11:40:59.641Z,14.44
2018-03-15T11:42:03.219Z,14.44
2018-03-15T11:43:06.556Z,14.46
2018-03-15T11:44:09.993Z,14.47
2018-03-15T11:45:13.353Z,14.48
2018-03-15T11:46:16.716Z,14.49
2018-03-15T11:47:20.106Z,14.50
2018-03-15T11:48:23.428Z,14.52
2018-03-15T11:49:27.695Z,14.54
2018-03-15T11:50:31.056Z,14.56
2018-03-15T11:51:34.417Z,14.59
2018-03-15T11:52:37.745Z,14.62
2018-03-15T11:53:41.071Z,14.63
2018-03-15T11:54:44.430Z,14.64
2018-03-15T11:55:47.901Z,14.64
2018-03-15T11:56:51.341Z,14.65
2018-03-15T11:57:54.717Z,14.67
2018-03-15T11:58:58.101Z,14.68
2018-03-15T12:00:01.586Z,14.70
2018-03-15T12:01:04.938Z,14.72
2018-03-15T12:02:08.280Z,14.74
2018-03-15T12:03:11.588Z,14.75
2018-03-15T12:04:14.940Z,14.75
2018-03-15T12:05:18.388Z,14.76
2018-03-15T12:06:21.743Z,14.76
2018-03-15T12:07:25.152Z,14.77
2018-03-15T12:08:28.673Z,14.76
2018-03-15T12:09:32.037Z,14.76
2018-03-15T12:10:35.498Z,14.75
2018-03-15T12:11:38.943Z,14.75
2018-03-15T12:12:42.260Z,14.74
2018-03-15T12:13:45.627Z,14.74
2018-03-15T12:14:49.944Z,14.75
2018-03-15T12:15:53.525Z,14.74
2018-03-15T12:16:56.876Z,14.75
2018-03-15T12:18:02.507Z,14.75
2018-03-15T12:19:05.879Z,14.73
2018-03-15T12:20:09.208Z,14.74
2018-03-15T12:21:12.591Z,14.75
2018-03-15T12:22:15.916Z,14.74
2018-03-15T12:23:19.234Z,14.73
2018-03-15T12:24:23.253Z,14.75
2018-03-15T12:25:27.121Z,14.75
2018-03-15T12:26:30.476Z,14.75
2018-03-15T12:27:33.852Z,14.76
2018-03-15T12:28:37.160Z,14.76
2018-03-15T12:29:40.486Z,14.74
2018-03-15T12:30:43.988Z,14.75
2018-03-15T12:31:47.330Z,14.76
2018-03-15T12:32:50.684Z,14.77
2018-03-15T12:33:54.101Z,14.76
2018-03-15T12:34:57.419Z,14.76
2018-03-15T12:36:00.779Z,14.75
2018-03-15T12:37:04.138Z,14.75
2018-03-15T12:38:07.485Z,14.75
2018-03-15T12:39:10.876Z,14.74
2018-03-15T12:40:14.210Z,14.74
2018-03-15T12:41:17.595Z,14.74
2018-03-15T12:42:20.949Z,14.75
2018-03-15T12:43:24.400Z,14.75
2018-03-15T12:44:27.776Z,14.76
2018-03-15T12:45:31.147Z,14.77
2018-03-15T12:46:34.445Z,14.78
2018-03-15T12:47:37.877Z,14.79
2018-03-15T12:48:41.204Z,14.78
2018-03-15T12:49:45.872Z,14.79
2018-03-15T12:50:49.206Z,14.81
2018-03-15T12:51:52.518Z,14.82
2018-03-15T12:52:56.025Z,14.84
2018-03-15T12:53:59.453Z,14.87
2018-03-15T12:55:02.833Z,14.89
2018-03-15T12:56:06.212Z,14.91
2018-03-15T12:57:09.604Z,14.93
2018-03-15T12:58:12.979Z,14.95
2018-03-15T12:59:16.328Z,14.97
2018-03-15T13:00:19.756Z,14.98
2018-03-15T13:01:23.142Z,15.00
2018-03-15T13:02:26.466Z,15.02
2018-03-15T13:03:29.907Z,15.04
2018-03-15T13:04:33.203Z,15.03
2018-03-15T13:05:36.618Z,15.02
2018-03-15T13:06:39.941Z,15.03
2018-03-15T13:07:43.252Z,15.04
2018-03-15T13:08:46.707Z,15.04
2018-03-15T13:09:50.028Z,15.06
2018-03-15T13:10:53.436Z,15.06
2018-03-15T13:11:56.778Z,15.06
2018-03-15T13:13:00.199Z,15.07
2018-03-15T13:14:04.916Z,15.09
2018-03-15T13:15:10.972Z,15.10
2018-03-15T13:16:14.471Z,15.10
2018-03-15T13:17:17.792Z,15.10
2018-03-15T13:18:21.357Z,15.11
2018-03-15T13:19:24.831Z,15.12
2018-03-15T13:20:28.292Z,15.13
2018-03-15T13:21:31.687Z,15.13
2018-03-15T13:22:35.021Z,15.13
2018-03-15T13:23:38.324Z,15.13
2018-03-15T13:24:41.916Z,15.12
2018-03-15T13:25:45.289Z,15.12
2018-03-15T13:26:48.634Z,15.11
2018-03-15T13:27:52.087Z,15.11
2018-03-15T13:28:55.536Z,15.11
2018-03-15T13:29:59.184Z,15.10
2018-03-15T13:31:02.539Z,15.09
2018-03-15T13:32:05.895Z,15.09
2018-03-15T13:33:09.210Z,15.09
2018-03-15T13:34:12.584Z,15.08
2018-03-15T13:35:16.125Z,15.07
2018-03-15T13:36:19.772Z,15.07
2018-03-15T13:37:23.738Z,15.06
2018-03-15T13:38:27.179Z,15.05
2018-03-15T13:39:30.899Z,15.04
2018-03-15T13:40:34.404Z,15.04
2018-03-15T13:41:38.340Z,15.02
2018-03-15T13:42:41.673Z,15.01
2018-03-15T13:43:45.019Z,14.99
2018-03-15T13:44:48.416Z,14.97
2018-03-15T13:45:51.874Z,14.96
2018-03-15T13:46:55.406Z,14.96
2018-03-15T13:47:58.772Z,14.96
2018-03-15T13:49:02.143Z,14.96
2018-03-15T13:50:05.623Z,14.96
2018-03-15T13:51:09.070Z,14.96
2018-03-15T13:52:12.412Z,14.96
2018-03-15T13:53:15.724Z,14.95
2018-03-15T13:54:19.151Z,14.96
2018-03-15T13:55:22.517Z,14.95